Time;durP1;ratioP1;P1;durP2;ratioP2;P2;SDS_P1;SDS_P2;PMS_P1;PMS_P2;Temp;Humidity;BMP_temperature;BMP_pressure;BME280_temperature;BME280_humidity;BME280_pressure;Samples;Min_cycle;Max_cycle;Signal;HPM_P1;HPM_P2
2021/10/20 00:01:47;;;;;;;5.65;3.55;;;;;;;14.84;100.00;101123.97;5181929;28;20025;-75
2021/10/20 00:04:19;;;;;;;5.05;3.20;;;;;;;14.84;100.00;101121.28;5191379;28;20467;-74
2021/10/20 00:06:51;;;;;;;7.88;3.25;;;;;;;14.90;100.00;101125.06;5188245;28;20033;-76
2021/10/20 00:09:21;;;;;;;7.05;3.35;;;;;;;14.87;100.00;101122.78;5192451;28;20261;-74
2021/10/20 00:11:52;;;;;;;5.68;3.20;;;;;;;14.76;100.00;101115.97;5198312;28;20393;-74
2021/10/20 00:14:22;;;;;;;8.70;3.90;;;;;;;14.81;100.00;101104.59;5164907;28;20557;-74
2021/10/20 00:16:53;;;;;;;6.85;3.45;;;;;;;14.76;100.00;101106.00;5181814;28;20026;-74
2021/10/20 00:19:24;;;;;;;5.70;2.88;;;;;;;14.76;100.00;101086.28;5181574;28;20700;-75
2021/10/20 00:21:56;;;;;;;5.57;3.25;;;;;;;14.81;100.00;101089.25;5184419;28;20021;-75
2021/10/20 00:24:27;;;;;;;7.10;3.85;;;;;;;14.75;100.00;101080.00;5188258;28;20477;-75
2021/10/20 00:26:57;;;;;;;6.43;3.35;;;;;;;14.83;100.00;101073.69;5182001;28;20022;-76
2021/10/20 00:29:27;;;;;;;4.90;3.17;;;;;;;14.76;100.00;101079.00;5184015;28;20416;-75
2021/10/20 00:31:58;;;;;;;5.75;3.35;;;;;;;14.76;100.00;101076.31;5202086;28;20044;-75
2021/10/20 00:34:28;;;;;;;6.82;3.35;;;;;;;14.79;100.00;101069.69;5202526;28;20060;-74
2021/10/20 00:36:59;;;;;;;6.88;3.70;;;;;;;14.77;100.00;101067.19;5201804;28;20083;-75
2021/10/20 00:39:29;;;;;;;4.72;3.30;;;;;;;14.74;100.00;101062.13;5183305;28;20065;-73
2021/10/20 00:42:00;;;;;;;4.50;3.08;;;;;;;14.74;100.00;101066.69;5193702;28;20033;-75
2021/10/20 00:44:45;;;;;;;6.50;3.38;;;;;;;14.76;100.00;101065.50;5187939;28;20116;-75
2021/10/20 00:47:17;;;;;;;9.93;3.20;;;;;;;14.73;100.00;101049.66;5186560;28;20029;-74
2021/10/20 00:49:49;;;;;;;14.63;4.35;;;;;;;14.73;100.00;101056.94;5184176;28;20026;-74
2021/10/20 00:52:21;;;;;;;4.65;3.20;;;;;;;14.72;100.00;101042.59;5197980;28;20026;-74
2021/10/20 00:54:55;;;;;;;9.00;3.67;;;;;;;14.68;100.00;101040.47;5201654;28;20037;-74
2021/10/20 00:57:26;;;;;;;7.45;2.95;;;;;;;14.69;100.00;101051.06;5196283;28;20104;-74
2021/10/20 00:59:59;;;;;;;5.85;3.50;;;;;;;14.67;100.00;101036.94;5193495;28;20022;-75
2021/10/20 01:02:30;;;;;;;10.43;3.50;;;;;;;14.72;100.00;101030.97;5193700;28;20042;-75
2021/10/20 01:05:01;;;;;;;6.82;3.58;;;;;;;14.71;100.00;101037.41;5195510;28;20074;-78
2021/10/20 01:07:42;;;;;;;9.25;3.55;;;;;;;14.68;100.00;101030.50;5193845;28;20024;-75
2021/10/20 01:10:23;;;;;;;5.30;3.53;;;;;;;14.65;100.00;101036.25;5195016;28;20704;-74
2021/10/20 01:12:54;;;;;;;9.90;3.47;;;;;;;14.59;100.00;101028.91;5181714;28;20263;-75
2021/10/20 01:15:27;;;;;;;8.00;3.75;;;;;;;14.54;100.00;101017.84;5194200;28;20032;-75
2021/10/20 01:17:57;;;;;;;7.43;3.83;;;;;;;14.52;100.00;101027.19;5181329;28;20022;-75
2021/10/20 01:20:32;;;;;;;5.65;3.25;;;;;;;14.46;100.00;101017.94;5180844;28;20119;-75
2021/10/20 01:23:03;;;;;;;9.93;4.05;;;;;;;14.44;100.00;101007.31;5194266;28;20075;-75
2021/10/20 01:25:33;;;;;;;8.15;4.10;;;;;;;14.41;100.00;101010.41;5181056;28;20034;-76
2021/10/20 01:28:04;;;;;;;6.22;3.60;;;;;;;14.58;100.00;101010.22;5197080;28;20036;-77
2021/10/20 01:30:35;;;;;;;5.57;3.88;;;;;;;14.67;100.00;101009.91;5190509;28;20045;-74
2021/10/20 01:33:06;;;;;;;6.40;4.07;;;;;;;14.77;100.00;101007.75;5180665;28;20106;-74
2021/10/20 01:35:37;;;;;;;6.50;3.63;;;;;;;14.97;100.00;101001.75;5180792;28;20018;-74
2021/10/20 01:38:08;;;;;;;9.73;3.85;;;;;;;15.09;100.00;101011.00;5163004;28;20030;-74
2021/10/20 01:40:39;;;;;;;7.82;3.78;;;;;;;15.18;100.00;100995.53;5191477;28;20033;-74
2021/10/20 01:43:09;;;;;;;8.27;4.40;;;;;;;15.21;100.00;100995.97;5192402;28;20034;-74
2021/10/20 01:45:40;;;;;;;7.32;4.05;;;;;;;15.27;100.00;100994.38;5196060;28;20072;-76
2021/10/20 01:48:11;;;;;;;6.30;3.90;;;;;;;15.36;100.00;100982.41;5201228;28;20025;-73
2021/10/20 01:50:45;;;;;;;9.67;4.17;;;;;;;15.43;100.00;100985.16;5190215;28;20022;-76
2021/10/20 01:53:16;;;;;;;9.20;3.95;;;;;;;15.44;100.00;100986.81;5201052;28;20040;-77
2021/10/20 01:55:47;;;;;;;5.65;3.65;;;;;;;15.43;100.00;100985.97;5187716;28;20033;-76
2021/10/20 01:58:18;;;;;;;6.88;4.32;;;;;;;15.46;100.00;100965.81;5188444;28;20045;-75
2021/10/20 02:00:49;;;;;;;8.07;3.78;;;;;;;15.53;100.00;100969.44;5192266;28;20108;-74
2021/10/20 02:03:26;;;;;;;6.35;3.60;;;;;;;15.51;100.00;100957.97;5181078;28;20033;-76
2021/10/20 02:06:04;;;;;;;8.57;3.80;;;;;;;15.60;100.00;100966.78;5191253;28;20491;-77
2021/10/20 02:08:35;;;;;;;5.47;3.58;;;;;;;15.61;100.00;100963.84;5168406;28;20145;-78
2021/10/20 02:11:07;;;;;;;6.25;3.83;;;;;;;15.62;100.00;100964.72;5189263;28;20061;-75
2021/10/20 02:13:39;;;;;;;10.40;4.47;;;;;;;15.65;100.00;100951.66;5184156;28;20025;-76
2021/10/20 02:16:09;;;;;;;10.18;3.90;;;;;;;15.72;100.00;100957.97;5200295;28;20438;-76
2021/10/20 02:18:40;;;;;;;9.50;4.05;;;;;;;15.73;100.00;100948.81;5194243;28;20018;-75
2021/10/20 02:21:11;;;;;;;9.35;4.13;;;;;;;15.68;100.00;100947.72;5193575;28;20141;-77
2021/10/20 02:23:41;;;;;;;8.00;4.80;;;;;;;15.62;100.00;100941.22;5179838;28;20034;-76
2021/10/20 02:26:12;;;;;;;8.35;3.92;;;;;;;15.64;100.00;100949.16;5179852;28;20540;-74
2021/10/20 02:28:42;;;;;;;6.10;3.95;;;;;;;15.52;100.00;100941.56;5188317;28;20037;-76
2021/10/20 02:31:13;;;;;;;8.63;4.13;;;;;;;15.42;100.00;100943.75;5199956;28;20061;-75
2021/10/20 02:33:43;;;;;;;6.38;4.10;;;;;;;15.38;100.00;100934.38;5200119;28;20033;-77
2021/10/20 02:36:14;;;;;;;12.18;4.18;;;;;;;15.36;100.00;100932.88;5196143;28;20026;-75
2021/10/20 02:38:44;;;;;;;8.43;4.18;;;;;;;15.33;100.00;100930.59;5179566;28;20802;-77
2021/10/20 02:41:15;;;;;;;5.80;3.88;;;;;;;15.25;100.00;100929.69;5179471;28;20025;-76
2021/10/20 02:43:45;;;;;;;8.63;3.95;;;;;;;15.19;100.00;100929.63;5179454;28;20115;-76
2021/10/20 02:46:16;;;;;;;11.15;4.18;;;;;;;15.19;100.00;100922.34;5179429;28;20060;-75
2021/10/20 02:48:46;;;;;;;7.35;3.67;;;;;;;15.17;100.00;100918.19;5180077;28;20243;-77
2021/10/20 02:51:17;;;;;;;7.43;3.80;;;;;;;15.20;100.00;100915.06;5189191;28;20024;-76
2021/10/20 02:53:47;;;;;;;7.78;4.22;;;;;;;15.19;100.00;100925.06;5184673;28;20024;-75
2021/10/20 02:56:18;;;;;;;5.03;3.67;;;;;;;15.14;100.00;100921.28;5179426;28;20480;-76
2021/10/20 02:58:49;;;;;;;12.10;3.70;;;;;;;15.17;100.00;100912.78;5194945;28;20458;-77
2021/10/20 03:01:21;;;;;;;6.30;3.60;;;;;;;15.11;100.00;100916.25;5170973;28;20096;-76
2021/10/20 03:03:51;;;;;;;8.55;3.92;;;;;;;15.07;100.00;100905.00;5196465;28;20104;-76
2021/10/20 03:06:22;;;;;;;9.38;4.38;;;;;;;15.13;100.00;100908.78;5199604;28;20073;-75
2021/10/20 03:08:53;;;;;;;8.65;4.10;;;;;;;15.10;100.00;100901.91;5180002;28;20083;-75
2021/10/20 03:11:23;;;;;;;12.77;4.43;;;;;;;15.09;100.00;100902.09;5192346;28;20064;-76
2021/10/20 03:13:54;;;;;;;8.88;4.32;;;;;;;15.06;100.00;100908.75;5199307;28;20398;-76
2021/10/20 03:16:25;;;;;;;8.70;4.15;;;;;;;15.09;100.00;100900.22;5198996;28;20072;-75
2021/10/20 03:18:56;;;;;;;8.93;4.20;;;;;;;15.07;100.00;100905.00;5190411;28;20539;-75
2021/10/20 03:21:26;;;;;;;9.85;4.20;;;;;;;15.12;100.00;100902.56;5179220;28;20647;-78
2021/10/20 03:23:57;;;;;;;8.65;4.72;;;;;;;15.19;100.00;100884.53;5178701;28;20021;-75
2021/10/20 03:26:27;;;;;;;7.22;4.50;;;;;;;15.17;100.00;100889.28;5182366;28;20180;-76
2021/10/20 03:28:58;;;;;;;9.00;4.85;;;;;;;15.21;100.00;100890.59;5187793;28;20030;-76
2021/10/20 03:31:28;;;;;;;11.02;4.95;;;;;;;15.26;100.00;100895.38;5196939;28;20027;-77
2021/10/20 03:33:59;;;;;;;12.50;5.28;;;;;;;15.27;100.00;100895.19;5198903;28;20040;-77
2021/10/20 03:36:29;;;;;;;8.93;4.55;;;;;;;15.29;100.00;100879.63;5193681;28;20034;-76
2021/10/20 03:39:00;;;;;;;9.75;5.10;;;;;;;15.32;100.00;100880.28;5178356;28;20020;-76
2021/10/20 03:41:31;;;;;;;7.88;5.07;;;;;;;15.31;100.00;100875.88;5160910;28;20503;-77
2021/10/20 03:44:01;;;;;;;9.57;4.78;;;;;;;15.34;100.00;100876.31;5165732;28;20492;-77
2021/10/20 03:46:32;;;;;;;9.48;4.90;;;;;;;15.34;100.00;100864.69;5187924;28;20032;-76
2021/10/20 03:49:02;;;;;;;7.70;4.75;;;;;;;15.31;100.00;100860.47;5182353;28;20057;-76
2021/10/20 03:51:33;;;;;;;11.85;5.43;;;;;;;15.27;100.00;100856.53;5189319;28;20025;-76
2021/10/20 03:54:03;;;;;;;8.82;5.13;;;;;;;15.26;100.00;100858.41;5185484;28;20059;-78
2021/10/20 03:56:34;;;;;;;9.40;5.03;;;;;;;15.19;100.00;100846.69;5169769;28;20320;-75
2021/10/20 03:59:04;;;;;;;6.45;4.72;;;;;;;15.18;100.00;100836.91;5177903;28;20088;-76
2021/10/20 04:01:35;;;;;;;11.30;6.00;;;;;;;15.14;100.00;100840.19;5178566;28;20714;-76
2021/10/20 04:04:05;;;;;;;8.40;4.47;;;;;;;15.02;100.00;100837.22;5191681;28;20030;-78
2021/10/20 04:06:36;;;;;;;9.45;4.50;;;;;;;14.99;100.00;100832.19;5179249;28;20025;-75
2021/10/20 04:09:06;;;;;;;10.95;4.90;;;;;;;14.95;100.00;100842.53;5187864;28;20492;-75
2021/10/20 04:11:37;;;;;;;7.90;4.57;;;;;;;14.87;100.00;100821.09;5185834;28;20049;-76
2021/10/20 04:14:08;;;;;;;9.73;5.60;;;;;;;14.92;100.00;100824.03;5198583;28;20017;-77
2021/10/20 04:16:38;;;;;;;11.25;5.13;;;;;;;14.88;100.00;100809.25;5181753;28;20025;-76
2021/10/20 04:19:09;;;;;;;10.93;4.60;;;;;;;14.84;100.00;100809.84;5188647;28;20437;-75
2021/10/20 04:21:39;;;;;;;8.27;4.80;;;;;;;14.81;100.00;100802.09;5180467;28;20018;-76
2021/10/20 04:24:09;;;;;;;9.30;4.28;;;;;;;14.75;100.00;100809.13;5190355;28;20108;-76
2021/10/20 04:26:40;;;;;;;11.52;4.90;;;;;;;14.68;100.00;100800.16;5192357;28;20422;-77
2021/10/20 04:29:11;;;;;;;8.07;5.15;;;;;;;14.64;100.00;100802.38;5177773;28;20084;-75
2021/10/20 04:31:41;;;;;;;7.00;4.30;;;;;;;14.63;100.00;100792.63;5185707;28;20022;-76
2021/10/20 04:34:12;;;;;;;11.98;4.60;;;;;;;14.65;100.00;100790.56;5184843;28;20319;-77
2021/10/20 04:36:42;;;;;;;7.45;4.82;;;;;;;14.66;100.00;100799.47;5180199;28;20034;-77
2021/10/20 04:39:13;;;;;;;11.38;5.43;;;;;;;14.60;100.00;100795.69;5197105;28;20018;-77
2021/10/20 04:41:44;;;;;;;10.60;4.45;;;;;;;14.64;100.00;100796.16;5202055;28;20083;-76
2021/10/20 04:44:14;;;;;;;8.45;4.28;;;;;;;14.64;100.00;100794.28;5189452;28;20108;-79
2021/10/20 04:46:45;;;;;;;8.63;4.85;;;;;;;14.61;100.00;100792.00;5191575;28;20026;-74
2021/10/20 04:49:15;;;;;;;7.20;4.68;;;;;;;14.62;100.00;100793.66;5181745;28;20033;-76
2021/10/20 04:51:46;;;;;;;9.00;4.60;;;;;;;14.61;100.00;100794.69;5193560;28;20467;-76
2021/10/20 04:54:16;;;;;;;9.05;4.88;;;;;;;14.62;100.00;100799.06;5201575;28;20029;-75
2021/10/20 04:56:47;;;;;;;9.68;4.97;;;;;;;14.61;100.00;100793.84;5189156;28;20112;-76
2021/10/20 04:59:17;;;;;;;7.47;4.50;;;;;;;14.63;100.00;100800.72;5194276;28;20068;-76
2021/10/20 05:01:47;;;;;;;8.70;4.30;;;;;;;14.66;100.00;100783.28;5195067;28;20094;-77
2021/10/20 05:04:18;;;;;;;8.00;4.88;;;;;;;14.72;100.00;100779.84;5175547;28;20056;-76
2021/10/20 05:06:48;;;;;;;13.75;4.85;;;;;;;14.75;100.00;100790.22;5182866;28;20112;-76
2021/10/20 05:09:19;;;;;;;8.68;4.45;;;;;;;14.79;100.00;100782.56;5181221;28;20018;-76
2021/10/20 05:11:50;;;;;;;9.43;5.20;;;;;;;14.81;100.00;100767.00;5181349;28;20030;-76
2021/10/20 05:14:22;;;;;;;11.80;5.35;;;;;;;14.80;100.00;100768.88;5192261;28;20022;-76
2021/10/20 05:16:52;;;;;;;8.05;4.80;;;;;;;14.82;100.00;100760.59;5201577;28;20056;-77
2021/10/20 05:19:23;;;;;;;8.35;4.53;;;;;;;14.82;100.00;100768.69;5155040;28;20018;-78
2021/10/20 05:21:53;;;;;;;7.85;5.18;;;;;;;14.82;100.00;100772.22;5187443;28;20391;-76
2021/10/20 05:24:24;;;;;;;7.65;4.68;;;;;;;14.83;100.00;100779.28;5187967;28;20132;-76
2021/10/20 05:26:55;;;;;;;7.72;4.78;;;;;;;14.87;100.00;100768.94;5201560;28;20025;-76
2021/10/20 05:29:31;;;;;;;8.35;4.60;;;;;;;14.85;100.00;100739.41;5201290;28;20036;-77
2021/10/20 05:32:02;;;;;;;12.23;5.18;;;;;;;14.81;100.00;100721.94;5201474;28;20115;-76
2021/10/20 05:34:33;;;;;;;6.82;4.47;;;;;;;14.77;100.00;100720.66;5184737;28;20116;-76
2021/10/20 05:37:03;;;;;;;9.70;5.30;;;;;;;14.75;100.00;100709.22;5191806;28;20051;-76
2021/10/20 05:39:34;;;;;;;6.28;4.25;;;;;;;14.75;100.00;100709.22;5195964;28;20038;-76
2021/10/20 05:42:05;;;;;;;8.88;4.82;;;;;;;14.73;100.00;100708.59;5180621;28;20095;-75
2021/10/20 05:44:35;;;;;;;9.50;5.03;;;;;;;14.66;100.00;100705.84;5187489;28;20033;-76
2021/10/20 05:47:06;;;;;;;10.40;5.28;;;;;;;14.67;100.00;100712.91;5200743;28;20025;-75
2021/10/20 05:49:36;;;;;;;8.85;4.43;;;;;;;14.72;100.00;100715.84;5193019;28;20084;-77
2021/10/20 05:52:07;;;;;;;9.02;5.00;;;;;;;14.73;100.00;100728.31;5196883;28;20395;-75
2021/10/20 05:54:38;;;;;;;11.63;4.95;;;;;;;14.68;100.00;100711.03;5200756;28;20038;-76
2021/10/20 05:57:08;;;;;;;9.38;5.05;;;;;;;14.68;100.00;100706.47;5184712;28;20076;-76
2021/10/20 05:59:39;;;;;;;10.00;4.65;;;;;;;14.71;100.00;100706.09;5180140;28;20029;-75
2021/10/20 06:02:12;;;;;;;8.48;5.40;;;;;;;14.71;100.00;100702.56;5167119;28;20057;-76
2021/10/20 06:04:43;;;;;;;14.68;5.00;;;;;;;14.73;100.00;100697.78;5201460;28;20025;-77
2021/10/20 06:07:14;;;;;;;9.65;4.78;;;;;;;14.76;100.00;100687.44;5196542;28;20028;-77
2021/10/20 06:09:44;;;;;;;9.40;5.30;;;;;;;14.74;100.00;100704.84;5193383;28;20018;-76
2021/10/20 06:12:15;;;;;;;9.00;5.32;;;;;;;14.84;100.00;100699.09;5187250;28;20027;-77
2021/10/20 06:14:45;;;;;;;9.15;4.80;;;;;;;14.87;100.00;100704.94;5200480;28;20026;-75
2021/10/20 06:17:18;;;;;;;15.90;5.72;;;;;;;14.97;100.00;100704.59;5192072;28;20022;-74
2021/10/20 06:19:49;;;;;;;10.25;6.07;;;;;;;15.02;100.00;100702.13;5195239;28;20113;-75
2021/10/20 06:22:19;;;;;;;11.57;5.22;;;;;;;15.04;100.00;100678.44;5200120;28;20112;-74
2021/10/20 06:24:49;;;;;;;10.10;5.20;;;;;;;15.09;100.00;100677.84;5196571;28;20057;-75
2021/10/20 06:27:20;;;;;;;7.60;4.85;;;;;;;15.08;100.00;100695.94;5190590;28;20029;-74
2021/10/20 06:29:51;;;;;;;14.65;5.25;;;;;;;15.21;100.00;100701.41;5199863;28;20021;-74
2021/10/20 06:32:22;;;;;;;9.93;5.38;;;;;;;15.25;100.00;100691.03;5187238;28;20034;-75
2021/10/20 06:34:53;;;;;;;7.82;4.90;;;;;;;15.33;100.00;100693.56;5179822;28;20084;-76
2021/10/20 06:37:23;;;;;;;6.35;5.03;;;;;;;15.37;100.00;100712.94;5192812;28;20033;-76
2021/10/20 06:39:54;;;;;;;8.48;5.05;;;;;;;15.37;100.00;100712.94;5186736;28;20034;-76
2021/10/20 06:42:24;;;;;;;11.48;5.80;;;;;;;15.45;100.00;100700.03;5196418;28;20446;-75
2021/10/20 06:44:56;;;;;;;7.57;5.50;;;;;;;15.59;100.00;100714.47;5188598;28;20041;-76
2021/10/20 06:47:27;;;;;;;10.10;6.32;;;;;;;15.67;100.00;100705.38;5183304;28;20030;-76
2021/10/20 06:49:57;;;;;;;8.55;5.38;;;;;;;15.74;100.00;100711.63;5181827;28;20080;-75
2021/10/20 06:52:28;;;;;;;11.23;5.22;;;;;;;15.79;100.00;100692.94;5196899;28;20098;-74
2021/10/20 06:54:58;;;;;;;11.13;6.13;;;;;;;15.65;100.00;100651.47;5196674;28;20064;-75
2021/10/20 06:57:29;;;;;;;10.57;6.45;;;;;;;15.41;100.00;100606.03;5157935;28;20210;-75
2021/10/20 06:59:59;;;;;;;11.65;6.68;;;;;;;15.22;100.00;100594.16;5177159;28;20034;-74
2021/10/20 07:02:30;;;;;;;15.10;7.38;;;;;;;15.00;100.00;100623.16;5185185;28;20028;-77
2021/10/20 07:05:00;;;;;;;12.13;7.75;;;;;;;14.88;100.00;100654.47;5198189;28;20056;-75
2021/10/20 07:07:31;;;;;;;13.88;8.32;;;;;;;14.77;100.00;100655.88;5190474;28;20014;-75
2021/10/20 07:10:03;;;;;;;17.67;7.88;;;;;;;14.76;100.00;100619.94;5192739;28;20068;-74
2021/10/20 07:12:35;;;;;;;17.02;7.53;;;;;;;14.73;100.00;100557.38;5197117;28;20029;-75
2021/10/20 07:15:06;;;;;;;13.60;8.00;;;;;;;14.72;100.00;100524.16;5179751;28;20296;-75
2021/10/20 07:17:38;;;;;;;11.82;7.82;;;;;;;14.71;100.00;100522.50;5197245;28;20090;-75
2021/10/20 07:20:09;;;;;;;15.45;8.73;;;;;;;14.68;100.00;100524.75;5158565;28;20382;-77
2021/10/20 07:22:40;;;;;;;14.52;8.98;;;;;;;14.70;100.00;100528.06;5189226;28;20612;-75
2021/10/20 07:25:13;;;;;;;15.55;8.73;;;;;;;14.71;100.00;100546.78;5197179;28;20120;-77
2021/10/20 07:27:43;;;;;;;13.55;8.60;;;;;;;14.71;100.00;100506.28;5165874;28;20506;-75
2021/10/20 07:30:15;;;;;;;19.13;9.43;;;;;;;14.71;100.00;100514.38;5189424;28;20058;-75
2021/10/20 07:32:46;;;;;;;12.43;8.77;;;;;;;14.71;100.00;100500.06;5191502;28;20032;-75
2021/10/20 07:35:16;;;;;;;17.02;8.77;;;;;;;14.67;100.00;100496.91;5188292;28;20041;-74
2021/10/20 07:37:48;;;;;;;15.02;8.15;;;;;;;14.62;100.00;100502.09;5175318;28;20040;-75
2021/10/20 07:40:19;;;;;;;19.30;9.00;;;;;;;14.59;100.00;100521.38;5197067;28;20030;-76
2021/10/20 07:42:49;;;;;;;17.70;8.63;;;;;;;14.57;100.00;100563.94;5172105;28;20319;-75
2021/10/20 07:45:20;;;;;;;15.18;8.05;;;;;;;14.61;100.00;100559.81;5189641;28;20383;-74
2021/10/20 07:47:51;;;;;;;18.08;9.57;;;;;;;14.60;100.00;100555.44;5184286;28;20626;-74
2021/10/20 07:50:23;;;;;;;14.40;8.73;;;;;;;14.61;100.00;100556.25;5169114;28;20014;-74
2021/10/20 07:52:53;;;;;;;11.15;8.05;;;;;;;14.61;100.00;100551.72;5197449;28;20034;-74
2021/10/20 07:55:24;;;;;;;11.90;7.95;;;;;;;14.61;100.00;100565.22;5150287;28;20083;-74
2021/10/20 07:57:56;;;;;;;16.02;8.20;;;;;;;14.62;100.00;100558.78;5197214;28;20360;-75
2021/10/20 08:00:48;;;;;;;13.18;8.43;;;;;;;14.62;100.00;100553.38;5183567;28;20021;-74
2021/10/20 08:03:18;;;;;;;11.93;6.55;;;;;;;14.62;100.00;100561.47;5197349;28;20036;-75
2021/10/20 08:05:49;;;;;;;12.35;7.40;;;;;;;14.64;100.00;100564.81;5196411;28;20017;-76
2021/10/20 08:08:19;;;;;;;14.88;8.00;;;;;;;14.71;100.00;100578.34;5183811;28;20395;-76
2021/10/20 08:10:50;;;;;;;12.73;7.80;;;;;;;14.73;100.00;100568.19;5186367;28;20025;-74
2021/10/20 08:13:20;;;;;;;11.52;7.50;;;;;;;14.77;100.00;100567.59;5200822;28;20112;-74
2021/10/20 08:15:51;;;;;;;17.13;7.85;;;;;;;14.84;100.00;100572.16;5201152;28;20029;-74
2021/10/20 08:18:22;;;;;;;14.30;7.70;;;;;;;14.92;100.00;100563.91;5196548;28;20033;-75
2021/10/20 08:20:53;;;;;;;11.95;7.35;;;;;;;15.02;100.00;100575.16;5191776;28;20252;-76
2021/10/20 08:23:23;;;;;;;11.68;7.28;;;;;;;15.10;100.00;100566.03;5201317;28;20152;-74
2021/10/20 08:25:54;;;;;;;13.50;7.32;;;;;;;15.06;100.00;100553.97;5201008;28;20029;-74
2021/10/20 08:28:24;;;;;;;11.43;7.15;;;;;;;15.04;100.00;100564.97;5201097;28;20021;-74
2021/10/20 08:30:54;;;;;;;9.13;5.90;;;;;;;15.04;100.00;100578.50;5200687;28;20098;-73
2021/10/20 08:33:25;;;;;;;11.55;6.70;;;;;;;15.16;100.00;100562.53;5200731;28;20022;-73
2021/10/20 08:35:56;;;;;;;11.90;6.28;;;;;;;15.50;100.00;100559.69;5201374;28;20056;-73
2021/10/20 08:38:26;;;;;;;10.13;5.82;;;;;;;15.75;100.00;100554.56;5201093;28;20387;-75
2021/10/20 08:40:58;;;;;;;10.18;6.28;;;;;;;15.79;100.00;100553.09;5199694;28;20474;-74
2021/10/20 08:43:29;;;;;;;12.40;6.38;;;;;;;15.84;100.00;100557.06;5189902;28;20132;-74
2021/10/20 08:46:00;;;;;;;11.35;6.30;;;;;;;15.95;100.00;100559.97;5197928;28;20089;-74
2021/10/20 08:48:31;;;;;;;9.82;5.97;;;;;;;16.18;100.00;100561.44;5193589;28;20030;-74
2021/10/20 08:51:03;;;;;;;9.52;5.97;;;;;;;16.39;100.00;100557.66;5182266;28;20030;-74
2021/10/20 08:53:34;;;;;;;9.65;6.15;;;;;;;16.67;100.00;100574.47;5175604;28;20100;-74
2021/10/20 08:56:04;;;;;;;8.65;5.80;;;;;;;16.58;100.00;100562.19;5187299;28;20132;-74
2021/10/20 08:58:35;;;;;;;9.75;5.70;;;;;;;16.52;100.00;100579.28;5189346;28;20037;-74
2021/10/20 09:01:05;;;;;;;10.35;6.22;;;;;;;16.34;100.00;100582.63;5192096;28;20104;-74
2021/10/20 09:03:36;;;;;;;9.60;6.68;;;;;;;16.13;100.00;100578.28;5194105;28;20033;-74
2021/10/20 09:06:06;;;;;;;11.88;5.97;;;;;;;15.99;100.00;100569.34;5193655;28;20017;-74
2021/10/20 09:08:41;;;;;;;10.60;5.85;;;;;;;15.92;100.00;100573.09;5192102;28;20091;-75
2021/10/20 09:11:22;;;;;;;10.07;6.00;;;;;;;15.90;100.00;100556.22;5191780;28;20615;-74
2021/10/20 09:13:57;;;;;;;7.75;5.53;;;;;;;15.98;100.00;100551.44;5191405;28;20029;-75
2021/10/20 09:16:30;;;;;;;10.15;5.78;;;;;;;16.06;100.00;100558.50;5189346;28;20021;-75
2021/10/20 09:19:10;;;;;;;11.10;5.80;;;;;;;16.16;100.00;100550.78;5185384;28;20060;-75
2021/10/20 09:21:46;;;;;;;11.68;7.30;;;;;;;16.26;100.00;100562.03;5187280;28;20684;-73
2021/10/20 09:24:17;;;;;;;10.73;5.60;;;;;;;16.34;100.00;100557.44;5182043;28;20029;-74
2021/10/20 09:26:50;;;;;;;8.18;5.63;;;;;;;16.39;100.00;100544.13;5181374;28;20029;-74
2021/10/20 09:29:24;;;;;;;10.27;5.95;;;;;;;16.42;100.00;100549.13;5191734;28;20009;-74
2021/10/20 09:31:55;;;;;;;10.82;6.13;;;;;;;16.61;100.00;100529.25;5182647;28;20485;-74
2021/10/20 09:34:35;;;;;;;12.30;6.32;;;;;;;17.08;100.00;100540.78;5184248;28;20040;-73
2021/10/20 09:37:07;;;;;;;12.50;7.15;;;;;;;17.60;100.00;100536.06;5185284;28;20022;-74
2021/10/20 09:39:38;;;;;;;8.52;5.68;;;;;;;18.08;100.00;100527.34;5179791;28;20095;-74
2021/10/20 09:42:11;;;;;;;11.75;6.10;;;;;;;18.13;100.00;100530.22;5181141;28;20206;-73
2021/10/20 09:44:47;;;;;;;11.05;6.05;;;;;;;17.80;100.00;100523.19;5170217;28;20025;-74
2021/10/20 09:47:19;;;;;;;17.48;6.20;;;;;;;17.34;100.00;100518.09;5181188;28;20018;-74
2021/10/20 09:49:58;;;;;;;12.75;6.10;;;;;;;17.16;100.00;100523.41;5178445;28;20018;-74
2021/10/20 09:52:29;;;;;;;10.82;5.75;;;;;;;16.96;100.00;100521.63;5186741;28;20022;-74
2021/10/20 09:54:59;;;;;;;11.05;6.47;;;;;;;16.82;100.00;100529.00;5174188;28;20606;-74
2021/10/20 09:57:30;;;;;;;11.90;6.45;;;;;;;16.71;100.00;100510.69;5183433;28;20018;-73
2021/10/20 10:00:01;;;;;;;10.27;6.35;;;;;;;16.61;100.00;100523.84;5185466;28;20079;-74
2021/10/20 10:02:32;;;;;;;11.38;6.15;;;;;;;16.66;100.00;100518.59;5185230;28;20064;-74
2021/10/20 10:05:03;;;;;;;13.68;6.30;;;;;;;16.69;100.00;100539.84;5190675;28;20029;-74
2021/10/20 10:07:34;;;;;;;10.45;6.10;;;;;;;16.67;100.00;100528.41;5190957;28;20025;-73
2021/10/20 10:10:05;;;;;;;11.90;6.63;;;;;;;16.62;100.00;100530.94;5161887;28;20075;-73
2021/10/20 10:12:36;;;;;;;13.32;6.63;;;;;;;16.67;100.00;100530.28;5172757;28;20025;-73
2021/10/20 10:15:11;;;;;;;14.45;6.65;;;;;;;16.76;100.00;100529.84;5189583;28;20479;-73
2021/10/20 10:17:43;;;;;;;15.45;5.90;;;;;;;16.69;100.00;100520.91;5185155;28;20515;-73
2021/10/20 10:20:16;;;;;;;12.45;7.07;;;;;;;16.64;100.00;100528.00;5182018;28;20271;-74
2021/10/20 10:22:53;;;;;;;11.25;6.20;;;;;;;16.67;100.00;100527.59;5188422;28;20029;-74
2021/10/20 10:25:29;;;;;;;10.23;6.05;;;;;;;16.59;100.00;100520.53;5182875;28;20494;-74
2021/10/20 10:28:05;;;;;;;12.80;6.70;;;;;;;16.54;100.00;100531.97;5191047;28;20359;-75
2021/10/20 10:31:02;;;;;;;12.80;6.63;;;;;;;16.44;100.00;100523.47;5190730;28;20048;-75
2021/10/20 10:33:38;;;;;;;10.57;6.40;;;;;;;16.39;100.00;100512.44;5182026;28;20495;-74
2021/10/20 10:36:16;;;;;;;13.73;6.55;;;;;;;16.32;100.00;100508.94;5186501;28;20029;-74
2021/10/20 10:38:49;;;;;;;13.80;6.85;;;;;;;16.29;100.00;100521.00;5189029;28;20406;-74
2021/10/20 10:41:26;;;;;;;11.85;6.57;;;;;;;16.32;100.00;100519.78;5183945;28;20751;-74
2021/10/20 10:44:01;;;;;;;10.68;6.53;;;;;;;16.44;100.00;100501.00;5185892;28;20117;-74
2021/10/20 10:46:32;;;;;;;10.25;6.38;;;;;;;16.50;100.00;100505.53;5189735;28;20052;-74
2021/10/20 10:49:20;;;;;;;13.10;6.47;;;;;;;16.47;100.00;100496.00;5186122;28;20424;-74
2021/10/20 10:52:18;;;;;;;8.35;6.28;;;;;;;16.47;100.00;100501.41;5188729;28;20119;-73
2021/10/20 10:54:56;;;;;;;9.07;6.00;;;;;;;16.40;100.00;100497.03;5189735;28;20548;-74
2021/10/20 10:57:37;;;;;;;12.20;6.70;;;;;;;16.40;100.00;100506.00;5184375;28;20041;-73
2021/10/20 11:00:17;;;;;;;12.13;6.72;;;;;;;16.43;100.00;100504.75;5184169;28;20032;-74
2021/10/20 11:02:51;;;;;;;11.45;6.30;;;;;;;16.49;100.00;100503.88;5177041;28;20026;-74
2021/10/20 11:05:27;;;;;;;10.05;7.03;;;;;;;16.53;100.00;100505.13;5186844;28;20744;-74
2021/10/20 11:08:02;;;;;;;10.88;6.43;;;;;;;16.61;100.00;100504.03;5176188;28;20024;-73
2021/10/20 11:10:36;;;;;;;12.55;6.60;;;;;;;16.68;100.00;100500.28;5195791;28;20029;-75
2021/10/20 11:13:07;;;;;;;11.38;6.80;;;;;;;16.69;100.00;100499.22;5179402;28;20033;-73
2021/10/20 11:15:38;;;;;;;11.77;6.53;;;;;;;16.65;100.00;100503.41;5196011;28;20032;-74
2021/10/20 11:18:08;;;;;;;10.95;6.53;;;;;;;16.71;100.00;100499.88;5197033;28;20030;-73
2021/10/20 11:20:43;;;;;;;7.97;6.22;;;;;;;16.77;100.00;100493.63;5196523;28;20398;-74
2021/10/20 11:23:17;;;;;;;9.93;6.13;;;;;;;16.77;100.00;100498.19;5179950;28;20478;-74
2021/10/20 11:25:49;;;;;;;9.02;6.32;;;;;;;16.80;100.00;100495.03;5179058;28;20029;-74
2021/10/20 11:28:19;;;;;;;13.00;6.68;;;;;;;16.78;100.00;100491.72;5183867;28;20030;-74
2021/10/20 11:30:50;;;;;;;10.45;6.35;;;;;;;16.75;100.00;100487.56;5196652;28;20024;-74
2021/10/20 11:33:22;;;;;;;11.43;6.60;;;;;;;16.77;100.00;100490.06;5145788;28;20030;-74
2021/10/20 11:35:56;;;;;;;11.15;6.40;;;;;;;16.72;100.00;100479.88;5187543;28;20029;-74